| time (UTC) | temp C | wind direction | speed KPH | gust KPH | rain 1hr cm | rain 24hr cm | rain mn cm | humidity % | barometer mb |
| 20260509013541 | 15 | 314 | 1.6 | 4.8 | 0.00 | 0.00 | 0.00 | 75 | 1009.5 |
| 20260509013039 | 15 | 321 | 1.6 | 8.0 | 0.00 | 0.00 | 0.00 | 74 | 1009.4 |
| 20260509012539 | 15 | 336 | 3.2 | 6.4 | 0.00 | 0.00 | 0.00 | 73 | 1009.5 |
| 20260509012040 | 15 | 325 | 1.6 | 8.0 | 0.00 | 0.00 | 0.00 | 73 | 1009.4 |
| 20260509011539 | 15 | 342 | 3.2 | 8.0 | 0.00 | 0.00 | 0.00 | 73 | 1009.2 |
| 20260509011038 | 15 | 335 | 3.2 | 8.0 | 0.00 | 0.00 | 0.00 | 75 | 1009.2 |
| 20260509010539 | 14 | 308 | 4.8 | 12.9 | 0.00 | 0.00 | 0.00 | 76 | 1009.3 |
| 20260509010036 | 14 | 352 | 1.6 | 11.3 | 0.00 | 0.00 | 0.00 | 80 | 1009.1 |
| 20260509005536 | 14 | 0 | 0.0 | 0.0 | 0.00 | 0.00 | 0.00 | 83 | 1008.9 |
| 20260509005033 | 14 | 18 | 1.6 | 4.8 | 0.00 | 0.00 | 0.00 | 83 | 1008.8 |
| 20260509004532 | 14 | 8 | 3.2 | 4.8 | 0.00 | 0.00 | 0.00 | 82 | 1008.6 |
| 20260509004032 | 14 | 0 | 0.0 | 0.0 | 0.00 | 0.00 | 0.00 | 80 | 1008.8 |
| 20260509003531 | 14 | 0 | 0.0 | 0.0 | 0.00 | 0.00 | 0.00 | 80 | 1008.8 |
| 20260509003031 | 14 | 0 | 0.0 | 0.0 | 0.00 | 0.00 | 0.00 | 81 | 1008.8 |
| 20260509002530 | 14 | 0 | 0.0 | 0.0 | 0.00 | 0.00 | 0.00 | 81 | 1008.8 |
| 20260509002030 | 15 | 0 | 0.0 | 0.0 | 0.00 | 0.00 | 0.00 | 81 | 1008.8 |
| 20260509001529 | 15 | 0 | 0.0 | 0.0 | 0.00 | 0.00 | 0.00 | 80 | 1008.8 |
| 20260509001029 | 15 | 0 | 0.0 | 0.0 | 0.00 | 0.00 | 0.00 | 80 | 1008.8 |
| 20260509000528 | 15 | 0 | 0.0 | 0.0 | 0.00 | 0.00 | 0.00 | 78 | 1008.8 |
| 20260509000028 | 15 | 333 | 0.0 | 4.8 | 0.00 | 0.00 | 0.00 | 78 | 1008.8 |
| 20260508235527 | 15 | 35 | 1.6 | 4.8 | 0.00 | 0.00 | 0.00 | 77 | 1008.8 |
| 20260508235027 | 15 | 31 | 1.6 | 3.2 | 0.00 | 0.00 | 0.00 | 75 | 1008.8 |
| 20260508234526 | 15 | 108 | 3.2 | 4.8 | 0.00 | 0.00 | 0.00 | 73 | 1008.8 |
| 20260508234024 | 15 | 25 | 3.2 | 4.8 | 0.00 | 0.00 | 0.00 | 74 | 1008.9 |
| 20260508233524 | 16 | 21 | 1.6 | 4.8 | 0.00 | 0.00 | 0.00 | 70 | 1008.8 |
| 20260508233023 | 16 | 13 | 1.6 | 3.2 | 0.00 | 0.00 | 0.00 | 68 | 1009.0 |
| 20260508232523 | 16 | 41 | 1.6 | 4.8 | 0.00 | 0.00 | 0.00 | 64 | 1008.8 |
| 20260508232022 | 16 | 315 | 1.6 | 3.2 | 0.00 | 0.00 | 0.00 | 62 | 1008.8 |
| 20260508231522 | 17 | 332 | 1.6 | 3.2 | 0.00 | 0.00 | 0.00 | 60 | 1008.8 |
| 20260508231021 | 17 | 236 | 1.6 | 4.8 | 0.00 | 0.00 | 0.00 | 55 | 1008.6 |
| 20260508230522 | 17 | 233 | 1.6 | 3.2 | 0.00 | 0.00 | 0.00 | 54 | 1008.6 |
| 20260508230020 | 17 | 298 | 1.6 | 3.2 | 0.00 | 0.00 | 0.00 | 57 | 1008.6 |
| 20260508225520 | 17 | 319 | 1.6 | 3.2 | 0.00 | 0.00 | 0.00 | 59 | 1008.5 |
| 20260508225019 | 17 | 0 | 0.0 | 0.0 | 0.00 | 0.00 | 0.00 | 53 | 1008.3 |
| 20260508224519 | 17 | 86 | 0.0 | 1.6 | 0.00 | 0.00 | 0.00 | 52 | 1008.3 |
| 20260508223518 | 18 | 94 | 0.0 | 1.6 | 0.00 | 0.00 | 0.00 | 47 | 1008.4 |
| 20260508223017 | 18 | 228 | 0.0 | 1.6 | 0.00 | 0.00 | 0.00 | 45 | 1008.4 |
| 20260508222517 | 18 | 269 | 1.6 | 4.8 | 0.00 | 0.00 | 0.00 | 45 | 1008.4 |
| 20260508222015 | 18 | 240 | 1.6 | 3.2 | 0.00 | 0.00 | 0.00 | 44 | 1008.4 |
| 20260508221515 | 18 | 228 | 1.6 | 6.4 | 0.00 | 0.00 | 0.00 | 43 | 1008.5 |
| 20260508221014 | 18 | 228 | 3.2 | 4.8 | 0.00 | 0.00 | 0.00 | 42 | 1008.5 |
| 20260508220513 | 18 | 201 | 1.6 | 3.2 | 0.00 | 0.00 | 0.00 | 44 | 1008.4 |
| 20260508220013 | 18 | 263 | 0.0 | 4.8 | 0.00 | 0.00 | 0.00 | 43 | 1008.4 |
| 20260508215513 | 18 | 217 | 3.2 | 9.7 | 0.00 | 0.00 | 0.00 | 42 | 1008.3 |
| 20260508215012 | 18 | 224 | 4.8 | 11.3 | 0.00 | 0.00 | 0.00 | 42 | 1008.4 |
| 20260508214512 | 18 | 205 | 8.0 | 16.1 | 0.00 | 0.00 | 0.00 | 42 | 1008.4 |
| 20260508214012 | 18 | 226 | 4.8 | 9.7 | 0.00 | 0.00 | 0.00 | 44 | 1008.4 |
| 20260508213511 | 18 | 224 | 6.4 | 9.7 | 0.00 | 0.00 | 0.00 | 41 | 1008.4 |
| 20260508213011 | 18 | 225 | 6.4 | 14.5 | 0.00 | 0.00 | 0.00 | 43 | 1008.5 |
| 20260508212509 | 18 | 229 | 8.0 | 16.1 | 0.00 | 0.00 | 0.00 | 40 | 1008.6 |
| 20260508212009 | 18 | 232 | 4.8 | 9.7 | 0.00 | 0.00 | 0.00 | 44 | 1008.5 |
| 20260508211508 | 18 | 228 | 8.0 | 14.5 | 0.00 | 0.00 | 0.00 | 42 | 1008.6 |
| 20260508211008 | 18 | 221 | 6.4 | 12.9 | 0.00 | 0.00 | 0.00 | 41 | 1008.8 |
| 20260508210507 | 18 | 235 | 9.7 | 17.7 | 0.00 | 0.00 | 0.00 | 42 | 1008.9 |
| 20260508210006 | 18 | 214 | 8.0 | 16.1 | 0.00 | 0.00 | 0.00 | 42 | 1009.0 |
| 20260508205505 | 18 | 235 | 11.3 | 19.3 | 0.00 | 0.00 | 0.00 | 40 | 1009.2 |
| 20260508205005 | 18 | 217 | 11.3 | 17.7 | 0.00 | 0.00 | 0.00 | 41 | 1009.2 |
| 20260508204504 | 18 | 218 | 9.7 | 17.7 | 0.00 | 0.00 | 0.00 | 40 | 1009.3 |
| 20260508204003 | 19 | 233 | 8.0 | 16.1 | 0.00 | 0.00 | 0.00 | 40 | 1009.4 |
| 20260508203503 | 18 | 229 | 9.7 | 17.7 | 0.00 | 0.00 | 0.00 | 42 | 1009.5 |
| 20260508203002 | 19 | 225 | 9.7 | 17.7 | 0.00 | 0.00 | 0.00 | 41 | 1009.5 |
| 20260508202502 | 19 | 232 | 12.9 | 22.5 | 0.00 | 0.00 | 0.00 | 39 | 1009.5 |
| 20260508202001 | 19 | 211 | 14.5 | 24.1 | 0.00 | 0.00 | 0.00 | 40 | 1009.5 |
| 20260508201501 | 19 | 239 | 9.7 | 16.1 | 0.00 | 0.00 | 0.00 | 39 | 1009.6 |
| 20260508200500 | 19 | 235 | 12.9 | 24.1 | 0.00 | 0.00 | 0.00 | 38 | 1009.5 |
| 20260508195459 | 19 | 207 | 14.5 | 24.1 | 0.00 | 0.00 | 0.00 | 38 | 1009.8 |
| 20260508194958 | 19 | 207 | 14.5 | 27.4 | 0.00 | 0.00 | 0.00 | 38 | 1009.7 |
| 20260508194458 | 19 | 224 | 12.9 | 22.5 | 0.00 | 0.00 | 0.00 | 40 | 1009.7 |
| 20260508193957 | 19 | 225 | 12.9 | 25.7 | 0.00 | 0.00 | 0.00 | 37 | 1009.7 |
| 20260508193457 | 19 | 231 | 17.7 | 30.6 | 0.00 | 0.00 | 0.00 | 38 | 1009.8 |
| 20260508192456 | 20 | 207 | 16.1 | 29.0 | 0.00 | 0.00 | 0.00 | 37 | 1009.9 |
| 20260508191955 | 20 | 222 | 16.1 | 32.2 | 0.00 | 0.00 | 0.00 | 35 | 1010.0 |
| 20260508191455 | 20 | 215 | 17.7 | 30.6 | 0.00 | 0.00 | 0.00 | 37 | 1010.0 |
| 20260508190954 | 20 | 236 | 14.5 | 32.2 | 0.00 | 0.00 | 0.00 | 36 | 1010.1 |
| 20260508190453 | 20 | 218 | 17.7 | 38.6 | 0.00 | 0.00 | 0.00 | 36 | 1010.2 |
| 20260508185953 | 20 | 215 | 19.3 | 35.4 | 0.00 | 0.00 | 0.00 | 40 | 1010.2 |
| 20260508185453 | 19 | 195 | 19.3 | 33.8 | 0.00 | 0.00 | 0.00 | 39 | 1010.5 |
| 20260508184952 | 20 | 205 | 17.7 | 35.4 | 0.00 | 0.00 | 0.00 | 37 | 1010.6 |
| 20260508184451 | 20 | 212 | 19.3 | 33.8 | 0.00 | 0.00 | 0.00 | 38 | 1010.5 |
| 20260508183450 | 20 | 212 | 12.9 | 22.5 | 0.00 | 0.00 | 0.00 | 39 | 1010.7 |
| 20260508182950 | 19 | 243 | 12.9 | 25.7 | 0.00 | 0.00 | 0.00 | 42 | 1010.7 |
| 20260508182448 | 20 | 218 | 17.7 | 33.8 | 0.00 | 0.00 | 0.00 | 40 | 1010.8 |
| 20260508181947 | 20 | 218 | 17.7 | 32.2 | 0.00 | 0.00 | 0.00 | 41 | 1010.9 |
| 20260508181446 | 20 | 222 | 17.7 | 32.2 | 0.00 | 0.00 | 0.00 | 44 | 1011.0 |
| 20260508180946 | 18 | 221 | 17.7 | 29.0 | 0.00 | 0.00 | 0.00 | 43 | 1011.1 |
| 20260508180445 | 18 | 214 | 16.1 | 30.6 | 0.00 | 0.00 | 0.00 | 42 | 1011.3 |
| 20260508175943 | 18 | 222 | 19.3 | 30.6 | 0.00 | 0.00 | 0.00 | 42 | 1011.3 |
| 20260508175442 | 18 | 222 | 16.1 | 29.0 | 0.00 | 0.00 | 0.00 | 41 | 1011.3 |
| 20260508174943 | 18 | 218 | 12.9 | 22.5 | 0.00 | 0.00 | 0.00 | 46 | 1011.3 |
| 20260508174441 | 18 | 222 | 14.5 | 22.5 | 0.00 | 0.00 | 0.00 | 43 | 1011.4 |
| 20260508173941 | 18 | 231 | 14.5 | 27.4 | 0.00 | 0.00 | 0.00 | 43 | 1011.5 |
| 20260508172940 | 18 | 226 | 16.1 | 24.1 | 0.00 | 0.00 | 0.00 | 42 | 1011.8 |
| 20260508172439 | 18 | 210 | 16.1 | 24.1 | 0.00 | 0.00 | 0.00 | 43 | 1011.9 |
| 20260508171939 | 18 | 217 | 14.5 | 29.0 | 0.00 | 0.00 | 0.00 | 44 | 1011.9 |
| 20260508171438 | 18 | 191 | 16.1 | 29.0 | 0.00 | 0.00 | 0.00 | 46 | 1011.9 |
| 20260508170938 | 18 | 194 | 14.5 | 27.4 | 0.00 | 0.00 | 0.00 | 42 | 1011.9 |
| 20260508165937 | 20 | 212 | 19.3 | 35.4 | 0.00 | 0.00 | 0.00 | 46 | 1012.1 |
| 20260508165436 | 19 | 236 | 17.7 | 29.0 | 0.00 | 0.00 | 0.00 | 42 | 1012.2 |
| 20260508164936 | 18 | 197 | 19.3 | 32.2 | 0.00 | 0.00 | 0.00 | 43 | 1012.3 |
| 20260508164435 | 18 | 215 | 19.3 | 33.8 | 0.00 | 0.00 | 0.00 | 42 | 1012.4 |
| 20260508163934 | 19 | 218 | 19.3 | 30.6 | 0.00 | 0.00 | 0.00 | 45 | 1012.4 |
| 20260508163434 | 18 | 218 | 17.7 | 32.2 | 0.00 | 0.00 | 0.00 | 42 | 1012.5 |
| 20260508162933 | 19 | 228 | 11.3 | 19.3 | 0.00 | 0.00 | 0.00 | 47 | 1012.5 |
| 20260508162433 | 18 | 221 | 17.7 | 27.4 | 0.00 | 0.00 | 0.00 | 44 | 1012.6 |
| 20260508161932 | 18 | 215 | 14.5 | 32.2 | 0.00 | 0.00 | 0.00 | 46 | 1012.6 |
| 20260508161432 | 18 | 212 | 14.5 | 24.1 | 0.00 | 0.00 | 0.00 | 45 | 1012.6 |
| 20260508160930 | 18 | 214 | 17.7 | 30.6 | 0.00 | 0.00 | 0.00 | 46 | 1012.8 |
| 20260508160430 | 17 | 214 | 17.7 | 35.4 | 0.00 | 0.00 | 0.00 | 46 | 1012.9 |
| 20260508155928 | 18 | 239 | 16.1 | 27.4 | 0.00 | 0.00 | 0.00 | 48 | 1013.0 |
| 20260508155427 | 18 | 221 | 14.5 | 27.4 | 0.00 | 0.00 | 0.00 | 49 | 1013.1 |
| 20260508154927 | 18 | 219 | 12.9 | 24.1 | 0.00 | 0.00 | 0.00 | 49 | 1013.1 |
| 20260508154427 | 17 | 231 | 14.5 | 22.5 | 0.00 | 0.00 | 0.00 | 49 | 1013.1 |
| 20260508153926 | 17 | 231 | 19.3 | 29.0 | 0.00 | 0.00 | 0.00 | 47 | 1013.2 |
| 20260508153426 | 17 | 222 | 16.1 | 29.0 | 0.00 | 0.00 | 0.00 | 49 | 1013.2 |
| 20260508152925 | 17 | 224 | 16.1 | 29.0 | 0.00 | 0.00 | 0.00 | 49 | 1013.2 |
| 20260508151924 | 16 | 228 | 16.1 | 29.0 | 0.00 | 0.00 | 0.00 | 48 | 1013.3 |
| 20260508151424 | 16 | 218 | 17.7 | 33.8 | 0.00 | 0.00 | 0.00 | 48 | 1013.3 |
| 20260508150423 | 16 | 229 | 14.5 | 25.7 | 0.00 | 0.00 | 0.00 | 48 | 1013.4 |
| 20260508145922 | 16 | 214 | 11.3 | 24.1 | 0.00 | 0.00 | 0.00 | 50 | 1013.5 |
| 20260508145422 | 16 | 221 | 11.3 | 20.9 | 0.00 | 0.00 | 0.00 | 51 | 1013.5 |
| 20260508144921 | 15 | 210 | 17.7 | 32.2 | 0.00 | 0.00 | 0.00 | 51 | 1013.5 |
| 20260508144420 | 15 | 224 | 19.3 | 30.6 | 0.00 | 0.00 | 0.00 | 48 | 1013.5 |
| 20260508143920 | 15 | 222 | 17.7 | 33.8 | 0.00 | 0.00 | 0.00 | 49 | 1013.6 |
| 20260508143419 | 15 | 222 | 16.1 | 29.0 | 0.00 | 0.00 | 0.00 | 49 | 1013.6 |
| 20260508142919 | 15 | 228 | 16.1 | 27.4 | 0.00 | 0.00 | 0.00 | 52 | 1013.7 |
| 20260508142418 | 15 | 238 | 16.1 | 30.6 | 0.00 | 0.00 | 0.00 | 50 | 1013.7 |
| 20260508141918 | 15 | 236 | 12.9 | 32.2 | 0.00 | 0.00 | 0.00 | 54 | 1013.8 |
| 20260508141417 | 15 | 217 | 12.9 | 25.7 | 0.00 | 0.00 | 0.00 | 50 | 1013.9 |
| 20260508140917 | 15 | 233 | 14.5 | 27.4 | 0.00 | 0.00 | 0.00 | 52 | 1013.9 |
| 20260508140416 | 14 | 219 | 14.5 | 29.0 | 0.00 | 0.00 | 0.00 | 49 | 1013.8 |
| 20260508135916 | 14 | 225 | 14.5 | 29.0 | 0.00 | 0.00 | 0.00 | 50 | 1013.8 |
| 20260508135415 | 14 | 236 | 14.5 | 32.2 | 0.00 | 0.00 | 0.00 | 49 | 1013.9 |
| 20260508134915 | 14 | 222 | 16.1 | 27.4 | 0.00 | 0.00 | 0.00 | 51 | 1013.8 |
| 20260508134414 | 14 | 212 | 14.5 | 30.6 | 0.00 | 0.00 | 0.00 | 50 | 1013.9 |
| 20260508133912 | 13 | 218 | 12.9 | 27.4 | 0.00 | 0.00 | 0.00 | 52 | 1013.9 |
| 20260508133411 | 13 | 224 | 12.9 | 20.9 | 0.00 | 0.00 | 0.00 | 53 | 1013.9 |
| 20260508132910 | 13 | 208 | 11.3 | 17.7 | 0.00 | 0.00 | 0.00 | 52 | 1013.9 |
| 20260508132410 | 13 | 218 | 12.9 | 19.3 | 0.00 | 0.00 | 0.00 | 52 | 1013.9 |
| 20260508131910 | 13 | 225 | 9.7 | 16.1 | 0.00 | 0.00 | 0.00 | 55 | 1013.9 |
| 20260508131409 | 13 | 226 | 6.4 | 16.1 | 0.00 | 0.00 | 0.00 | 55 | 1013.9 |
| 20260508130908 | 13 | 229 | 8.0 | 12.9 | 0.00 | 0.00 | 0.00 | 57 | 1013.9 |
| 20260508125906 | 12 | 198 | 6.4 | 14.5 | 0.00 | 0.00 | 0.00 | 61 | 1013.9 |
| 20260508125406 | 12 | 225 | 4.8 | 9.7 | 0.00 | 0.00 | 0.00 | 61 | 1013.9 |
| 20260508124905 | 12 | 188 | 4.8 | 9.7 | 0.00 | 0.00 | 0.00 | 61 | 1013.9 |
| 20260508124405 | 11 | 200 | 4.8 | 9.7 | 0.00 | 0.00 | 0.00 | 62 | 1013.9 |
| 20260508123904 | 11 | 191 | 6.4 | 8.0 | 0.00 | 0.00 | 0.00 | 62 | 1013.8 |
| 20260508123404 | 11 | 176 | 4.8 | 9.7 | 0.00 | 0.00 | 0.00 | 65 | 1013.8 |
| 20260508122903 | 10 | 218 | 3.2 | 6.4 | 0.00 | 0.00 | 0.00 | 68 | 1013.9 |
| 20260508122403 | 10 | 221 | 3.2 | 6.4 | 0.00 | 0.00 | 0.00 | 69 | 1013.9 |
| 20260508121902 | 9 | 184 | 0.0 | 4.8 | 0.00 | 0.00 | 0.00 | 72 | 1013.9 |
| 20260508121402 | 9 | 0 | 0.0 | 0.0 | 0.00 | 0.00 | 0.00 | 72 | 1013.9 |
| 20260508120901 | 9 | 200 | 1.6 | 4.8 | 0.00 | 0.00 | 0.00 | 71 | 1013.8 |
| 20260508120401 | 9 | 159 | 3.2 | 6.4 | 0.00 | 0.00 | 0.00 | 73 | 1013.7 |
| 20260508115900 | 9 | 159 | 3.2 | 6.4 | 0.00 | 0.00 | 0.00 | 73 | 1013.7 |
| 20260508115400 | 9 | 159 | 4.8 | 9.7 | 0.00 | 0.00 | 0.00 | 73 | 1013.6 |
| 20260508114900 | 8 | 128 | 3.2 | 6.4 | 0.00 | 0.00 | 0.00 | 75 | 1013.5 |
| 20260508114359 | 8 | 160 | 1.6 | 4.8 | 0.00 | 0.00 | 0.00 | 76 | 1013.6 |
| 20260508113859 | 8 | 150 | 0.0 | 3.2 | 0.00 | 0.00 | 0.00 | 76 | 1013.5 |
| 20260508113357 | 8 | 148 | 0.0 | 4.8 | 0.00 | 0.00 | 0.00 | 75 | 1013.5 |
| 20260508112857 | 8 | 155 | 0.0 | 3.2 | 0.00 | 0.00 | 0.00 | 76 | 1013.5 |
| 20260508112356 | 8 | 118 | 0.0 | 3.2 | 0.00 | 0.00 | 0.00 | 75 | 1013.4 |
| 20260508111856 | 8 | 143 | 0.0 | 1.6 | 0.00 | 0.00 | 0.00 | 75 | 1013.4 |
| 20260508111355 | 8 | 170 | 0.0 | 1.6 | 0.00 | 0.00 | 0.00 | 75 | 1013.3 |
| 20260508110855 | 8 | 158 | 0.0 | 3.2 | 0.00 | 0.00 | 0.00 | 74 | 1013.3 |
| 20260508110353 | 8 | 172 | 3.2 | 4.8 | 0.00 | 0.00 | 0.00 | 74 | 1013.3 |
| 20260508105853 | 8 | 166 | 3.2 | 6.4 | 0.00 | 0.00 | 0.00 | 74 | 1013.1 |
| 20260508105352 | 8 | 180 | 3.2 | 8.0 | 0.00 | 0.00 | 0.00 | 74 | 1013.1 |
| 20260508104852 | 8 | 145 | 1.6 | 9.7 | 0.00 | 0.00 | 0.00 | 74 | 1013.1 |
| 20260508104350 | 8 | 188 | 1.6 | 4.8 | 0.00 | 0.00 | 0.00 | 75 | 1013.1 |
| 20260508103850 | 8 | 153 | 1.6 | 3.2 | 0.00 | 0.00 | 0.00 | 77 | 1013.2 |
| 20260508103349 | 8 | 0 | 0.0 | 0.0 | 0.00 | 0.00 | 0.00 | 78 | 1013.3 |
| 20260508102849 | 8 | 0 | 0.0 | 0.0 | 0.00 | 0.00 | 0.00 | 78 | 1013.4 |
| 20260508102348 | 7 | 186 | 0.0 | 3.2 | 0.00 | 0.00 | 0.00 | 77 | 1013.3 |
| 20260508101848 | 7 | 173 | 0.0 | 3.2 | 0.00 | 0.00 | 0.00 | 79 | 1013.4 |
| 20260508101348 | 7 | 163 | 0.0 | 3.2 | 0.00 | 0.00 | 0.00 | 80 | 1013.3 |
| 20260508100847 | 7 | 180 | 0.0 | 3.2 | 0.00 | 0.00 | 0.00 | 82 | 1013.3 |
| 20260508100346 | 7 | 166 | 0.0 | 1.6 | 0.00 | 0.00 | 0.00 | 83 | 1013.3 |
| 20260508095846 | 7 | 0 | 0.0 | 0.0 | 0.00 | 0.00 | 0.00 | 83 | 1013.3 |
| 20260508095345 | 7 | 0 | 0.0 | 0.0 | 0.00 | 0.00 | 0.00 | 83 | 1013.4 |
| 20260508094844 | 7 | 0 | 0.0 | 0.0 | 0.00 | 0.00 | 0.00 | 83 | 1013.4 |
| 20260508094344 | 7 | 0 | 0.0 | 0.0 | 0.00 | 0.00 | 0.00 | 83 | 1013.4 |
| 20260508093844 | 7 | 0 | 0.0 | 0.0 | 0.00 | 0.00 | 0.00 | 82 | 1013.4 |
| 20260508093343 | 7 | 0 | 0.0 | 0.0 | 0.00 | 0.00 | 0.00 | 82 | 1013.5 |
| 20260508092842 | 7 | 0 | 0.0 | 0.0 | 0.00 | 0.00 | 0.00 | 82 | 1013.4 |
| 20260508092342 | 7 | 225 | 0.0 | 4.8 | 0.00 | 0.00 | 0.00 | 82 | 1013.4 |
| 20260508091840 | 7 | 0 | 0.0 | 0.0 | 0.00 | 0.00 | 0.00 | 84 | 1013.4 |
| 20260508091340 | 7 | 129 | 0.0 | 1.6 | 0.00 | 0.00 | 0.00 | 85 | 1013.4 |
| 20260508090840 | 7 | 0 | 0.0 | 0.0 | 0.00 | 0.00 | 0.00 | 86 | 1013.4 |
| 20260508090340 | 7 | 0 | 0.0 | 0.0 | 0.00 | 0.00 | 0.00 | 87 | 1013.3 |
| 20260508085838 | 7 | 0 | 0.0 | 0.0 | 0.00 | 0.00 | 0.00 | 87 | 1013.4 |
| 20260508085337 | 6 | 0 | 0.0 | 0.0 | 0.00 | 0.00 | 0.00 | 88 | 1013.3 |
| 20260508084836 | 6 | 0 | 0.0 | 0.0 | 0.00 | 0.00 | 0.00 | 87 | 1013.3 |
| 20260508084336 | 6 | 0 | 0.0 | 0.0 | 0.00 | 0.00 | 0.00 | 88 | 1013.4 |
| 20260508083835 | 6 | 0 | 0.0 | 0.0 | 0.00 | 0.00 | 0.00 | 87 | 1013.3 |
| 20260508083335 | 6 | 0 | 0.0 | 0.0 | 0.00 | 0.00 | 0.00 | 87 | 1013.4 |
| 20260508082834 | 6 | 0 | 0.0 | 0.0 | 0.00 | 0.00 | 0.00 | 88 | 1013.4 |
| 20260508082333 | 6 | 0 | 0.0 | 0.0 | 0.00 | 0.00 | 0.00 | 87 | 1013.3 |
| 20260508081833 | 6 | 0 | 0.0 | 0.0 | 0.00 | 0.00 | 0.00 | 87 | 1013.3 |
| 20260508081333 | 5 | 0 | 0.0 | 0.0 | 0.00 | 0.00 | 0.00 | 87 | 1013.2 |
| 20260508080832 | 6 | 0 | 0.0 | 0.0 | 0.00 | 0.00 | 0.00 | 86 | 1013.3 |
| 20260508080332 | 6 | 0 | 0.0 | 0.0 | 0.00 | 0.00 | 0.00 | 86 | 1013.3 |
| 20260508075832 | 6 | 0 | 0.0 | 0.0 | 0.00 | 0.00 | 0.00 | 86 | 1013.2 |
| 20260508075332 | 6 | 0 | 0.0 | 0.0 | 0.00 | 0.00 | 0.00 | 86 | 1013.2 |
| 20260508074331 | 6 | 0 | 0.0 | 0.0 | 0.00 | 0.00 | 0.00 | 86 | 1013.2 |
| 20260508073831 | 6 | 0 | 0.0 | 0.0 | 0.00 | 0.00 | 0.00 | 86 | 1013.2 |
| 20260508073331 | 6 | 0 | 0.0 | 0.0 | 0.00 | 0.00 | 0.00 | 85 | 1013.1 |
| 20260508072831 | 6 | 0 | 0.0 | 0.0 | 0.00 | 0.00 | 0.00 | 85 | 1013.2 |
| 20260508072327 | 6 | 0 | 0.0 | 0.0 | 0.00 | 0.00 | 0.00 | 84 | 1013.2 |
| 20260508071827 | 6 | 0 | 0.0 | 0.0 | 0.00 | 0.00 | 0.00 | 83 | 1013.4 |
| 20260508071326 | 6 | 0 | 0.0 | 0.0 | 0.00 | 0.00 | 0.00 | 83 | 1013.4 |
| 20260508070324 | 6 | 0 | 0.0 | 0.0 | 0.00 | 0.00 | 0.00 | 82 | 1013.4 |
| 20260508065824 | 6 | 0 | 0.0 | 0.0 | 0.00 | 0.00 | 0.00 | 82 | 1013.3 |
| 20260508065323 | 6 | 0 | 0.0 | 0.0 | 0.00 | 0.00 | 0.00 | 82 | 1013.4 |
| 20260508064823 | 6 | 0 | 0.0 | 0.0 | 0.00 | 0.00 | 0.00 | 81 | 1013.6 |
| 20260508064322 | 6 | 0 | 0.0 | 0.0 | 0.00 | 0.00 | 0.00 | 81 | 1013.6 |
| 20260508063822 | 6 | 0 | 0.0 | 0.0 | 0.00 | 0.00 | 0.00 | 80 | 1013.7 |
| 20260508063322 | 6 | 0 | 0.0 | 0.0 | 0.00 | 0.00 | 0.00 | 80 | 1013.8 |
| 20260508062821 | 6 | 101 | 0.0 | 0.0 | 0.00 | 0.00 | 0.00 | 81 | 1013.8 |
| 20260508062321 | 6 | 0 | 0.0 | 0.0 | 0.00 | 0.00 | 0.00 | 81 | 1013.8 |
| 20260508061821 | 6 | 0 | 0.0 | 0.0 | 0.00 | 0.00 | 0.00 | 81 | 1013.9 |
| 20260508061320 | 6 | 0 | 0.0 | 0.0 | 0.00 | 0.00 | 0.00 | 81 | 1013.9 |
| 20260508060820 | 6 | 0 | 0.0 | 0.0 | 0.00 | 0.00 | 0.00 | 80 | 1013.9 |
| 20260508060318 | 6 | 0 | 0.0 | 0.0 | 0.00 | 0.00 | 0.00 | 80 | 1013.8 |
| 20260508055818 | 6 | 0 | 0.0 | 0.0 | 0.00 | 0.00 | 0.00 | 81 | 1013.8 |
| 20260508055318 | 7 | 0 | 0.0 | 0.0 | 0.00 | 0.00 | 0.00 | 81 | 1013.8 |
| 20260508054817 | 7 | 0 | 0.0 | 0.0 | 0.00 | 0.00 | 0.00 | 81 | 1013.9 |
| 20260508054317 | 7 | 0 | 0.0 | 0.0 | 0.00 | 0.00 | 0.00 | 79 | 1013.9 |
| 20260508053817 | 7 | 0 | 0.0 | 0.0 | 0.00 | 0.00 | 0.00 | 77 | 1013.9 |
| 20260508053316 | 7 | 0 | 0.0 | 0.0 | 0.00 | 0.00 | 0.00 | 75 | 1013.8 |
| 20260508052816 | 7 | 0 | 0.0 | 0.0 | 0.00 | 0.00 | 0.00 | 73 | 1013.8 |
| 20260508052315 | 7 | 0 | 0.0 | 0.0 | 0.00 | 0.00 | 0.00 | 73 | 1013.8 |
| 20260508051814 | 7 | 0 | 0.0 | 0.0 | 0.00 | 0.00 | 0.00 | 71 | 1013.7 |
| 20260508051409 | 7 | 0 | 0.0 | 0.0 | 0.00 | 0.00 | 0.00 | 71 | 1013.7 |
| 20260508051314 | 7 | 0 | 0.0 | 0.0 | 0.00 | 0.00 | 0.00 | 71 | 1013.7 |
| 20260508050814 | 8 | 0 | 0.0 | 0.0 | 0.00 | 0.00 | 0.00 | 70 | 1013.7 |
| 20260508050313 | 8 | 0 | 0.0 | 0.0 | 0.00 | 0.00 | 0.00 | 68 | 1013.8 |
| 20260508045812 | 8 | 0 | 0.0 | 0.0 | 0.00 | 0.00 | 0.00 | 67 | 1013.8 |
| 20260508045312 | 8 | 149 | 0.0 | 1.6 | 0.00 | 0.00 | 0.00 | 66 | 1013.8 |
| 20260508044811 | 8 | 0 | 0.0 | 0.0 | 0.00 | 0.00 | 0.00 | 66 | 1013.8 |
| 20260508044311 | 8 | 0 | 0.0 | 0.0 | 0.00 | 0.00 | 0.00 | 66 | 1013.7 |
| 20260508043810 | 8 | 0 | 0.0 | 0.0 | 0.00 | 0.00 | 0.00 | 65 | 1013.7 |
| 20260508043309 | 8 | 200 | 0.0 | 3.2 | 0.00 | 0.00 | 0.00 | 65 | 1013.6 |
| 20260508042809 | 8 | 0 | 0.0 | 0.0 | 0.00 | 0.00 | 0.00 | 66 | 1013.6 |
| 20260508042309 | 8 | 0 | 0.0 | 0.0 | 0.00 | 0.00 | 0.00 | 66 | 1013.6 |
| 20260508041808 | 8 | 193 | 0.0 | 1.6 | 0.00 | 0.00 | 0.00 | 66 | 1013.6 |
| 20260508041308 | 8 | 0 | 0.0 | 0.0 | 0.00 | 0.00 | 0.00 | 66 | 1013.6 |
| 20260508040808 | 8 | 128 | 0.0 | 0.0 | 0.00 | 0.00 | 0.00 | 67 | 1013.6 |
| 20260508040307 | 8 | 128 | 0.0 | 1.6 | 0.00 | 0.00 | 0.00 | 67 | 1013.5 |
| 20260508035807 | 8 | 0 | 0.0 | 0.0 | 0.00 | 0.00 | 0.00 | 67 | 1013.5 |
| 20260508035306 | 8 | 155 | 0.0 | 3.2 | 0.00 | 0.00 | 0.00 | 67 | 1013.5 |
| 20260508034803 | 8 | 0 | 0.0 | 0.0 | 0.00 | 0.00 | 0.00 | 66 | 1013.5 |
| 20260508034303 | 8 | 0 | 0.0 | 0.0 | 0.00 | 0.00 | 0.00 | 65 | 1013.6 |
| 20260508033803 | 9 | 134 | 0.0 | 1.6 | 0.00 | 0.00 | 0.00 | 64 | 1013.6 |
| 20260508033302 | 9 | 0 | 0.0 | 0.0 | 0.00 | 0.00 | 0.00 | 64 | 1013.6 |
| 20260508032802 | 9 | 0 | 0.0 | 0.0 | 0.00 | 0.00 | 0.00 | 65 | 1013.6 |
| 20260508032305 | 9 | 132 | 0.0 | 1.6 | 0.00 | 0.00 | 0.00 | 64 | 1013.6 |
| 20260508031801 | 9 | 162 | 0.0 | 3.2 | 0.00 | 0.00 | 0.00 | 64 | 1013.6 |
| 20260508031301 | 9 | 156 | 0.0 | 0.0 | 0.00 | 0.00 | 0.00 | 63 | 1013.5 |
| 20260508030800 | 9 | 172 | 0.0 | 4.8 | 0.00 | 0.00 | 0.00 | 64 | 1013.5 |
| 20260508030300 | 9 | 177 | 0.0 | 1.6 | 0.00 | 0.00 | 0.00 | 64 | 1013.4 |
| 20260508025800 | 8 | 183 | 0.0 | 3.2 | 0.00 | 0.00 | 0.00 | 65 | 1013.3 |
| 20260508025259 | 8 | 150 | 0.0 | 4.8 | 0.00 | 0.00 | 0.00 | 67 | 1013.3 |
| 20260508024759 | 8 | 0 | 0.0 | 0.0 | 0.00 | 0.00 | 0.00 | 69 | 1013.5 |
| 20260508024257 | 8 | 0 | 0.0 | 0.0 | 0.00 | 0.00 | 0.00 | 70 | 1013.5 |
| 20260508023757 | 8 | 0 | 0.0 | 0.0 | 0.00 | 0.00 | 0.00 | 70 | 1013.5 |
| 20260508023257 | 8 | 0 | 0.0 | 0.0 | 0.00 | 0.00 | 0.00 | 71 | 1013.5 |
| 20260508022757 | 8 | 77 | 0.0 | 1.6 | 0.00 | 0.00 | 0.00 | 71 | 1013.5 |
| 20260508022256 | 8 | 0 | 0.0 | 0.0 | 0.00 | 0.00 | 0.00 | 70 | 1013.5 |
| 20260508021755 | 8 | 0 | 0.0 | 0.0 | 0.00 | 0.00 | 0.00 | 71 | 1013.3 |
| 20260508021255 | 8 | 0 | 0.0 | 0.0 | 0.00 | 0.00 | 0.00 | 73 | 1013.3 |
| 20260508020755 | 8 | 0 | 0.0 | 0.0 | 0.00 | 0.00 | 0.00 | 72 | 1013.4 |
| 20260508020254 | 8 | 0 | 0.0 | 0.0 | 0.00 | 0.00 | 0.00 | 73 | 1013.4 |
| 20260508015753 | 8 | 77 | 0.0 | 0.0 | 0.00 | 0.00 | 0.00 | 74 | 1013.3 |
| 20260508015252 | 8 | 107 | 0.0 | 1.6 | 0.00 | 0.00 | 0.00 | 74 | 1013.2 |
| 20260508014752 | 8 | 0 | 0.0 | 0.0 | 0.00 | 0.00 | 0.00 | 76 | 1013.3 |
| 20260508014252 | 9 | 0 | 0.0 | 0.0 | 0.00 | 0.00 | 0.00 | 76 | 1013.4 |
| 20260508013752 | 9 | 0 | 0.0 | 0.0 | 0.00 | 0.00 | 0.00 | 76 | 1013.3 |